createdAt,value
2018-12-27T00:00:53.507Z,1016.60
2018-12-27T00:01:53.512Z,1016.59
2018-12-27T00:02:55.008Z,1016.59
2018-12-27T00:03:53.474Z,1016.61
2018-12-27T00:04:53.462Z,1016.65
2018-12-27T00:05:53.450Z,1016.63
2018-12-27T00:06:53.456Z,1016.63
2018-12-27T00:07:53.426Z,1016.62
2018-12-27T00:08:53.415Z,1016.71
2018-12-27T00:09:53.408Z,1016.67
2018-12-27T00:10:53.392Z,1016.63
2018-12-27T00:11:53.402Z,1016.67
2018-12-27T00:12:53.369Z,1016.66
2018-12-27T00:13:53.357Z,1016.65
2018-12-27T00:14:53.346Z,1016.67
2018-12-27T00:15:53.335Z,1016.64
2018-12-27T00:16:53.343Z,1016.66
2018-12-27T00:17:53.312Z,1016.69
2018-12-27T00:18:53.711Z,1016.66
2018-12-27T00:20:00.330Z,1016.65
2018-12-27T00:20:53.279Z,1016.66
2018-12-27T00:21:53.284Z,1016.64
2018-12-27T00:22:53.254Z,1016.57
2018-12-27T00:23:53.248Z,1016.60
2018-12-27T00:24:53.235Z,1016.60
2018-12-27T00:25:53.221Z,1016.60
2018-12-27T00:26:53.227Z,1016.54
2018-12-27T00:27:53.197Z,1016.54
2018-12-27T00:28:53.187Z,1016.57
2018-12-27T00:29:53.179Z,1016.51
2018-12-27T00:30:53.165Z,1016.57
2018-12-27T00:31:53.204Z,1016.54
2018-12-27T00:32:53.174Z,1016.58
2018-12-27T00:33:53.129Z,1016.57
2018-12-27T00:34:53.138Z,1016.54
2018-12-27T00:35:53.108Z,1016.52
2018-12-27T00:36:53.093Z,1016.54
2018-12-27T00:37:53.132Z,1016.50
2018-12-27T00:38:53.074Z,1016.50
2018-12-27T00:39:53.059Z,1016.47
2018-12-27T00:40:53.048Z,1016.49
2018-12-27T00:41:53.059Z,1016.51
2018-12-27T00:42:53.028Z,1016.58
2018-12-27T00:43:53.029Z,1016.55
2018-12-27T00:44:53.002Z,1016.53
2018-12-27T00:45:53.008Z,1016.50
2018-12-27T00:46:52.989Z,1016.52
2018-12-27T00:47:52.994Z,1016.52
2018-12-27T00:48:52.963Z,1016.47
2018-12-27T00:49:52.951Z,1016.51
2018-12-27T00:50:52.939Z,1016.43
2018-12-27T00:51:52.929Z,1016.43
2018-12-27T00:52:52.932Z,1016.45
2018-12-27T00:53:52.944Z,1016.47
2018-12-27T00:54:52.895Z,1016.41
2018-12-27T00:55:52.894Z,1016.38
2018-12-27T00:56:52.878Z,1016.35
2018-12-27T00:57:52.883Z,1016.34
2018-12-27T00:58:52.845Z,1016.28
2018-12-27T00:59:52.849Z,1016.27
2018-12-27T01:00:52.851Z,1016.24
2018-12-27T01:01:52.810Z,1016.18
2018-12-27T01:02:52.831Z,1016.25
2018-12-27T01:03:52.786Z,1016.21
2018-12-27T01:04:52.786Z,1016.24
2018-12-27T01:05:52.771Z,1016.25
2018-12-27T01:06:52.754Z,1016.20
2018-12-27T01:07:52.764Z,1016.22
2018-12-27T01:08:52.732Z,1016.23
2018-12-27T01:09:52.726Z,1016.18
2018-12-27T01:10:52.722Z,1016.21
2018-12-27T01:11:52.721Z,1016.19
2018-12-27T01:12:52.706Z,1016.20
2018-12-27T01:13:52.706Z,1016.23
2018-12-27T01:14:52.700Z,1016.19
2018-12-27T01:15:52.675Z,1016.22
2018-12-27T01:16:52.642Z,1016.13
2018-12-27T01:17:52.627Z,1016.21
2018-12-27T01:18:52.648Z,1016.28
2018-12-27T01:19:52.618Z,1016.28
2018-12-27T01:20:52.596Z,1016.23
2018-12-27T01:21:52.599Z,1016.22
2018-12-27T01:22:52.580Z,1016.25
2018-12-27T01:23:52.578Z,1016.21
2018-12-27T01:24:52.554Z,1016.27
2018-12-27T01:25:52.538Z,1016.21
2018-12-27T01:26:52.526Z,1016.22
2018-12-27T01:27:52.518Z,1016.23
2018-12-27T01:28:52.555Z,1016.19
2018-12-27T01:29:52.495Z,1016.17
2018-12-27T01:30:52.483Z,1016.17
2018-12-27T01:31:52.472Z,1016.21
2018-12-27T01:32:52.477Z,1016.20
2018-12-27T01:33:52.472Z,1016.20
2018-12-27T01:34:52.480Z,1016.22
2018-12-27T01:35:52.428Z,1016.21
2018-12-27T01:36:52.415Z,1016.16
2018-12-27T01:37:52.418Z,1016.21
2018-12-27T01:38:52.393Z,1016.19
2018-12-27T01:39:52.401Z,1016.17
2018-12-27T01:40:52.373Z,1016.21
2018-12-27T01:41:52.368Z,1016.16
2018-12-27T01:42:52.353Z,1016.23
2018-12-27T01:43:52.334Z,1016.26
2018-12-27T01:44:52.345Z,1016.20
2018-12-27T01:45:52.322Z,1016.23
2018-12-27T01:46:52.306Z,1016.24
2018-12-27T01:47:52.289Z,1016.19
2018-12-27T01:48:52.289Z,1016.21
2018-12-27T01:49:52.309Z,1016.25
2018-12-27T01:50:52.259Z,1016.24
2018-12-27T01:51:52.248Z,1016.10
2018-12-27T01:52:52.247Z,1016.14
2018-12-27T01:53:52.235Z,1016.13
2018-12-27T01:54:52.223Z,1016.16
2018-12-27T01:55:52.234Z,1016.17
2018-12-27T01:56:52.187Z,1016.12
2018-12-27T01:57:52.175Z,1016.11
2018-12-27T01:58:52.164Z,1016.12
2018-12-27T01:59:52.161Z,1016.11
2018-12-27T02:00:52.176Z,1016.09
2018-12-27T02:01:52.133Z,1016.15
2018-12-27T02:02:52.122Z,1016.13
2018-12-27T02:03:52.133Z,1016.09
2018-12-27T02:04:52.097Z,1016.07
2018-12-27T02:05:52.103Z,1016.04
2018-12-27T02:06:52.079Z,1016.05
2018-12-27T02:07:52.078Z,1016.00
2018-12-27T02:08:52.065Z,1016.01
2018-12-27T02:09:52.039Z,1016.04
2018-12-27T02:10:52.081Z,1016.01
2018-12-27T02:11:52.040Z,1016.01
2018-12-27T02:12:52.011Z,1015.98
2018-12-27T02:13:52.020Z,1015.98
2018-12-27T02:14:51.985Z,1015.94
2018-12-27T02:15:51.978Z,1015.94
2018-12-27T02:16:51.997Z,1015.95
2018-12-27T02:17:51.954Z,1015.91
2018-12-27T02:18:51.960Z,1015.90
2018-12-27T02:19:51.938Z,1015.90
2018-12-27T02:20:51.960Z,1015.91
2018-12-27T02:21:51.942Z,1015.91
2018-12-27T02:22:51.898Z,1015.92
2018-12-27T02:23:51.891Z,1015.95
2018-12-27T02:24:51.956Z,1015.85
2018-12-27T02:25:51.856Z,1015.91
2018-12-27T02:26:51.866Z,1015.92
2018-12-27T02:27:51.836Z,1015.90
2018-12-27T02:28:51.829Z,1015.90
2018-12-27T02:29:51.827Z,1015.93
2018-12-27T02:30:51.811Z,1015.91
2018-12-27T02:31:51.867Z,1015.94
2018-12-27T02:32:51.778Z,1015.92
2018-12-27T02:33:51.774Z,1015.86
2018-12-27T02:34:51.759Z,1015.86
2018-12-27T02:35:51.752Z,1015.86
2018-12-27T02:36:51.776Z,1015.83
2018-12-27T02:37:51.728Z,1015.88
2018-12-27T02:38:51.726Z,1015.85
2018-12-27T02:39:51.705Z,1015.91
2018-12-27T02:40:51.691Z,1015.86
2018-12-27T02:41:51.690Z,1015.81
2018-12-27T02:42:51.712Z,1015.84
2018-12-27T02:43:51.676Z,1015.82
2018-12-27T02:44:51.667Z,1015.83
2018-12-27T02:45:51.677Z,1015.79
2018-12-27T02:46:51.620Z,1015.75
2018-12-27T02:47:51.614Z,1015.71
2018-12-27T02:48:51.618Z,1015.72
2018-12-27T02:49:51.598Z,1015.66
2018-12-27T02:50:51.576Z,1015.64
2018-12-27T02:51:51.567Z,1015.65
2018-12-27T02:52:51.557Z,1015.62
2018-12-27T02:53:51.596Z,1015.61
2018-12-27T02:54:51.610Z,1015.59
2018-12-27T02:55:51.526Z,1015.64
2018-12-27T02:56:51.514Z,1015.72
2018-12-27T02:57:51.516Z,1015.71
2018-12-27T02:58:51.505Z,1015.68
2018-12-27T02:59:51.474Z,1015.72
2018-12-27T03:00:51.462Z,1015.73
2018-12-27T03:01:51.462Z,1015.69
2018-12-27T03:02:51.440Z,1015.69
2018-12-27T03:03:51.459Z,1015.70
2018-12-27T03:04:51.413Z,1015.71
2018-12-27T03:05:51.406Z,1015.66
2018-12-27T03:06:51.405Z,1015.66
2018-12-27T03:07:51.389Z,1015.65
2018-12-27T03:08:51.370Z,1015.62
2018-12-27T03:09:51.384Z,1015.64
2018-12-27T03:10:51.351Z,1015.62
2018-12-27T03:11:51.334Z,1015.66
2018-12-27T03:12:51.325Z,1015.58
2018-12-27T03:13:51.311Z,1015.55
2018-12-27T03:14:51.341Z,1015.59
2018-12-27T03:15:51.290Z,1015.56
2018-12-27T03:16:51.284Z,1015.59
2018-12-27T03:17:51.267Z,1015.55
2018-12-27T03:18:51.258Z,1015.56
2018-12-27T03:19:51.245Z,1015.54
2018-12-27T03:20:51.279Z,1015.51
2018-12-27T03:21:51.229Z,1015.49
2018-12-27T03:22:51.211Z,1015.51
2018-12-27T03:23:51.198Z,1015.45
2018-12-27T03:24:51.211Z,1015.48
2018-12-27T03:25:51.187Z,1015.49
2018-12-27T03:26:51.189Z,1015.50
2018-12-27T03:27:51.152Z,1015.48
2018-12-27T03:28:51.139Z,1015.47
2018-12-27T03:29:51.149Z,1015.46
2018-12-27T03:30:51.167Z,1015.47
2018-12-27T03:31:51.109Z,1015.46
2018-12-27T03:32:51.097Z,1015.45
2018-12-27T03:33:52.742Z,1015.42
2018-12-27T03:34:51.073Z,1015.47
2018-12-27T03:35:51.067Z,1015.42
2018-12-27T03:36:51.079Z,1015.37
2018-12-27T03:37:51.037Z,1015.38
2018-12-27T03:38:51.031Z,1015.37
2018-12-27T03:39:51.039Z,1015.33
2018-12-27T03:40:51.005Z,1015.33
2018-12-27T03:41:51.104Z,1015.26
2018-12-27T03:42:50.983Z,1015.30
2018-12-27T03:43:50.971Z,1015.24
2018-12-27T03:44:50.971Z,1015.27
2018-12-27T03:45:50.968Z,1015.23
2018-12-27T03:46:50.962Z,1015.23
2018-12-27T03:47:50.922Z,1015.22
2018-12-27T03:48:50.912Z,1015.19
2018-12-27T03:49:50.902Z,1015.24
2018-12-27T03:50:50.907Z,1015.22
2018-12-27T03:51:50.916Z,1015.19
2018-12-27T03:52:50.864Z,1015.18
2018-12-27T03:53:50.858Z,1015.19
2018-12-27T03:54:50.846Z,1015.17
2018-12-27T03:55:50.849Z,1015.17
2018-12-27T03:56:50.846Z,1015.10
2018-12-27T03:57:50.817Z,1015.17
2018-12-27T03:58:50.795Z,1015.13
2018-12-27T03:59:50.789Z,1015.12
2018-12-27T04:00:50.802Z,1015.15
2018-12-27T04:01:50.829Z,1015.12
2018-12-27T04:02:50.752Z,1015.12
2018-12-27T04:03:50.740Z,1015.08
2018-12-27T04:04:50.739Z,1015.05
2018-12-27T04:05:50.713Z,1015.04
2018-12-27T04:06:50.703Z,1015.03
2018-12-27T04:07:50.776Z,1015.04
2018-12-27T04:08:50.689Z,1015.00
2018-12-27T04:09:50.687Z,1015.02
2018-12-27T04:10:50.661Z,1015.00
2018-12-27T04:11:50.650Z,1014.97
2018-12-27T04:12:50.635Z,1014.98
2018-12-27T04:13:50.670Z,1014.98
2018-12-27T04:14:50.615Z,1014.95
2018-12-27T04:15:50.599Z,1014.93
2018-12-27T04:16:50.593Z,1014.97
2018-12-27T04:17:50.581Z,1014.95
2018-12-27T04:18:50.574Z,1014.98
2018-12-27T04:19:50.592Z,1014.96
2018-12-27T04:20:50.551Z,1014.97
2018-12-27T04:21:50.531Z,1014.99
2018-12-27T04:22:50.538Z,1015.00
2018-12-27T04:23:50.511Z,1014.96
2018-12-27T04:24:50.537Z,1014.92
2018-12-27T04:25:50.491Z,1014.96
2018-12-27T04:26:50.484Z,1014.99
2018-12-27T04:27:50.486Z,1014.97
2018-12-27T04:28:50.476Z,1014.95
2018-12-27T04:29:50.466Z,1014.95
2018-12-27T04:30:50.445Z,1014.95
2018-12-27T04:31:50.417Z,1014.90
2018-12-27T04:32:50.404Z,1014.90
2018-12-27T04:33:50.400Z,1014.91
2018-12-27T04:34:50.405Z,1014.94
2018-12-27T04:35:50.374Z,1014.89
2018-12-27T04:36:50.399Z,1014.92
2018-12-27T04:37:50.360Z,1014.94
2018-12-27T04:38:50.334Z,1014.94
2018-12-27T04:39:50.380Z,1014.88
2018-12-27T04:40:50.315Z,1014.95
2018-12-27T04:41:50.336Z,1014.92
2018-12-27T04:42:50.290Z,1014.97
2018-12-27T04:43:50.308Z,1014.95
2018-12-27T04:44:50.289Z,1014.96
2018-12-27T04:45:50.287Z,1014.96
2018-12-27T04:46:50.282Z,1014.96
2018-12-27T04:47:50.233Z,1014.92
2018-12-27T04:48:50.265Z,1014.92
2018-12-27T04:49:50.223Z,1014.93
2018-12-27T04:50:50.263Z,1014.97
2018-12-27T04:51:50.202Z,1014.90
2018-12-27T04:52:50.186Z,1014.96
2018-12-27T04:53:50.164Z,1014.95
2018-12-27T04:54:50.158Z,1014.93
2018-12-27T04:55:50.146Z,1014.94
2018-12-27T04:56:50.170Z,1014.93
2018-12-27T04:57:50.133Z,1014.92
2018-12-27T04:58:50.113Z,1014.91
2018-12-27T04:59:50.103Z,1014.89
2018-12-27T05:00:50.087Z,1014.87
2018-12-27T05:01:50.093Z,1014.82
2018-12-27T05:02:50.064Z,1014.86
2018-12-27T05:03:50.088Z,1014.82
2018-12-27T05:04:50.077Z,1014.83
2018-12-27T05:05:50.038Z,1014.82
2018-12-27T05:06:50.040Z,1014.76
2018-12-27T05:07:50.033Z,1014.77
2018-12-27T05:08:50.071Z,1014.80
2018-12-27T05:09:49.986Z,1014.74
2018-12-27T05:10:49.973Z,1014.75
2018-12-27T05:11:50.007Z,1014.77
2018-12-27T05:12:49.962Z,1014.82
2018-12-27T05:13:49.944Z,1014.80
2018-12-27T05:14:49.962Z,1014.80
2018-12-27T05:15:49.923Z,1014.80
2018-12-27T05:16:49.933Z,1014.79
2018-12-27T05:17:49.900Z,1014.79
2018-12-27T05:18:49.883Z,1014.81
2018-12-27T05:19:49.901Z,1014.83
2018-12-27T05:20:49.885Z,1014.86
2018-12-27T05:21:49.850Z,1014.89
2018-12-27T05:22:49.858Z,1014.91
2018-12-27T05:23:49.838Z,1014.90
2018-12-27T05:24:49.827Z,1014.84
2018-12-27T05:25:49.814Z,1014.95
2018-12-27T05:26:49.814Z,1014.94
2018-12-27T05:27:49.814Z,1014.92
2018-12-27T05:28:49.794Z,1014.92
2018-12-27T05:29:49.781Z,1014.99
2018-12-27T05:30:49.754Z,1014.91
2018-12-27T05:31:49.742Z,1014.93
2018-12-27T05:32:49.775Z,1014.94
2018-12-27T05:33:49.726Z,1014.91
2018-12-27T05:34:49.726Z,1014.94
2018-12-27T05:35:49.692Z,1014.96
2018-12-27T05:36:49.717Z,1014.99
2018-12-27T05:37:49.674Z,1014.95
2018-12-27T05:38:49.699Z,1014.98
2018-12-27T05:39:49.656Z,1014.98
2018-12-27T05:40:49.642Z,1014.96
2018-12-27T05:41:49.642Z,1014.98
2018-12-27T05:42:49.612Z,1014.96
2018-12-27T05:43:49.618Z,1014.98
2018-12-27T05:44:49.627Z,1014.99
2018-12-27T05:45:49.586Z,1014.99
2018-12-27T05:46:49.569Z,1015.04
2018-12-27T05:47:49.587Z,1015.06
2018-12-27T05:48:49.561Z,1015.02
2018-12-27T05:49:49.571Z,1015.10
2018-12-27T05:50:49.524Z,1015.04
2018-12-27T05:51:49.521Z,1015.10
2018-12-27T05:52:49.529Z,1015.09
2018-12-27T05:53:49.489Z,1015.10
2018-12-27T05:54:49.478Z,1015.08
2018-12-27T05:55:49.499Z,1015.14
2018-12-27T05:56:49.468Z,1015.17
2018-12-27T05:57:49.467Z,1015.13
2018-12-27T05:58:49.451Z,1015.16
2018-12-27T05:59:49.427Z,1015.15
2018-12-27T06:00:49.435Z,1015.20
2018-12-27T06:01:49.413Z,1015.18
2018-12-27T06:02:49.389Z,1015.14
2018-12-27T06:03:49.402Z,1015.21
2018-12-27T06:04:49.366Z,1015.18
2018-12-27T06:05:49.387Z,1015.26
2018-12-27T06:06:49.342Z,1015.24
2018-12-27T06:07:49.332Z,1015.24
2018-12-27T06:08:49.338Z,1015.19
2018-12-27T06:09:49.344Z,1015.23
2018-12-27T06:10:49.324Z,1015.20
2018-12-27T06:11:49.311Z,1015.19
2018-12-27T06:12:49.288Z,1015.19
2018-12-27T06:13:49.291Z,1015.19
2018-12-27T06:14:49.261Z,1015.22
2018-12-27T06:15:49.271Z,1015.19
2018-12-27T06:16:49.234Z,1015.15
2018-12-27T06:17:49.233Z,1015.19
2018-12-27T06:18:49.237Z,1015.15
2018-12-27T06:19:56.225Z,1015.16
2018-12-27T06:20:49.184Z,1015.15
2018-12-27T06:21:49.192Z,1015.15
2018-12-27T06:22:49.161Z,1015.17
2018-12-27T06:23:49.150Z,1015.10
2018-12-27T06:24:49.141Z,1015.13
2018-12-27T06:25:49.132Z,1015.11
2018-12-27T06:26:49.135Z,1015.12
2018-12-27T06:27:49.105Z,1015.11
2018-12-27T06:28:49.095Z,1015.10
2018-12-27T06:29:49.083Z,1015.09
2018-12-27T06:30:49.074Z,1015.04
2018-12-27T06:31:49.089Z,1015.06
2018-12-27T06:32:49.053Z,1015.09
2018-12-27T06:33:49.038Z,1015.05
2018-12-27T06:34:49.028Z,1015.08
2018-12-27T06:35:49.015Z,1015.13
2018-12-27T06:36:49.004Z,1015.04
2018-12-27T06:37:49.013Z,1015.08
2018-12-27T06:38:48.982Z,1015.10
2018-12-27T06:39:48.971Z,1015.07
2018-12-27T06:40:48.959Z,1015.08
2018-12-27T06:41:48.950Z,1015.13
2018-12-27T06:42:48.960Z,1015.07
2018-12-27T06:43:48.927Z,1015.05
2018-12-27T06:44:48.921Z,1015.11
2018-12-27T06:45:48.904Z,1015.11
2018-12-27T06:46:48.893Z,1015.07
2018-12-27T06:47:48.900Z,1015.12
2018-12-27T06:48:48.877Z,1015.10
2018-12-27T06:49:48.858Z,1015.05
2018-12-27T06:50:48.859Z,1015.12
2018-12-27T06:51:48.838Z,1015.07
2018-12-27T06:52:48.847Z,1015.10
2018-12-27T06:53:48.832Z,1015.08
2018-12-27T06:54:48.803Z,1015.12
2018-12-27T06:55:48.792Z,1015.11
2018-12-27T06:56:48.780Z,1015.13
2018-12-27T06:57:48.838Z,1015.15
2018-12-27T06:58:48.777Z,1015.13
2018-12-27T06:59:48.747Z,1015.15
2018-12-27T07:00:48.736Z,1015.13
2018-12-27T07:01:48.725Z,1015.15
2018-12-27T07:02:48.716Z,1015.11
2018-12-27T07:03:48.721Z,1015.19
2018-12-27T07:04:49.206Z,1015.17
2018-12-27T07:05:48.680Z,1015.19
2018-12-27T07:06:48.668Z,1015.21
2018-12-27T07:07:48.661Z,1015.13
2018-12-27T07:08:48.663Z,1015.09
2018-12-27T07:09:48.635Z,1015.07
2018-12-27T07:10:48.622Z,1015.12
2018-12-27T07:11:48.612Z,1015.11
2018-12-27T07:12:48.602Z,1015.13
2018-12-27T07:13:48.607Z,1015.13
2018-12-27T07:14:48.579Z,1015.09
2018-12-27T07:15:48.567Z,1015.12
2018-12-27T07:16:48.560Z,1015.16
2018-12-27T07:17:48.546Z,1015.15
2018-12-27T07:18:48.554Z,1015.17
2018-12-27T07:19:48.523Z,1015.10
2018-12-27T07:20:48.510Z,1015.14
2018-12-27T07:21:48.500Z,1015.21
2018-12-27T07:22:48.490Z,1015.17
2018-12-27T07:23:48.497Z,1015.11
2018-12-27T07:24:48.467Z,1015.14
2018-12-27T07:25:48.454Z,1015.14
2018-12-27T07:26:48.447Z,1015.16
2018-12-27T07:27:48.431Z,1015.12
2018-12-27T07:28:48.446Z,1015.17
2018-12-27T07:29:48.411Z,1015.15
2018-12-27T07:30:48.398Z,1015.13
2018-12-27T07:31:48.388Z,1015.10
2018-12-27T07:32:48.379Z,1015.13
2018-12-27T07:33:48.384Z,1015.14
2018-12-27T07:34:48.353Z,1015.13
2018-12-27T07:35:48.342Z,1015.13
2018-12-27T07:36:48.331Z,1015.12
2018-12-27T07:37:48.319Z,1014.99
2018-12-27T07:38:48.329Z,1015.09
2018-12-27T07:39:48.296Z,1015.11
2018-12-27T07:40:48.284Z,1015.06
2018-12-27T07:41:48.273Z,1015.09
2018-12-27T07:42:48.265Z,1015.08
2018-12-27T07:43:48.273Z,1015.06
2018-12-27T07:44:48.242Z,1015.08
2018-12-27T07:45:48.229Z,1015.03
2018-12-27T07:46:48.221Z,1015.07
2018-12-27T07:47:48.210Z,1015.07
2018-12-27T07:48:48.215Z,1015.11
2018-12-27T07:49:48.184Z,1015.04
2018-12-27T07:50:48.172Z,1015.08
2018-12-27T07:51:48.162Z,1015.08
2018-12-27T07:52:48.152Z,1015.11
2018-12-27T07:53:48.162Z,1015.10
2018-12-27T07:54:48.131Z,1015.11
2018-12-27T07:55:48.119Z,1015.14
2018-12-27T07:56:48.106Z,1015.16
2018-12-27T07:57:48.095Z,1015.10
2018-12-27T07:58:48.101Z,1015.14
2018-12-27T07:59:48.073Z,1015.09
2018-12-27T08:00:48.064Z,1015.10
2018-12-27T08:01:48.049Z,1014.98
2018-12-27T08:02:48.040Z,1015.00
2018-12-27T08:03:48.049Z,1015.01
2018-12-27T08:04:48.016Z,1015.01
2018-12-27T08:05:48.004Z,1014.99
2018-12-27T08:06:48.001Z,1014.99
2018-12-27T08:07:47.984Z,1014.95
2018-12-27T08:08:47.972Z,1014.98
2018-12-27T08:09:47.981Z,1015.00
2018-12-27T08:10:47.948Z,1015.01
2018-12-27T08:11:47.937Z,1015.01
2018-12-27T08:12:47.926Z,1014.99
2018-12-27T08:13:47.915Z,1015.01
2018-12-27T08:14:47.921Z,1014.96
2018-12-27T08:15:47.893Z,1014.97
2018-12-27T08:16:47.881Z,1015.00
2018-12-27T08:17:47.869Z,1014.99
2018-12-27T08:18:47.859Z,1014.99
2018-12-27T08:19:47.868Z,1015.05
2018-12-27T08:20:47.844Z,1015.02
2018-12-27T08:21:47.825Z,1015.02
2018-12-27T08:22:47.879Z,1015.02
2018-12-27T08:23:47.802Z,1015.05
2018-12-27T08:24:47.816Z,1015.03
2018-12-27T08:25:47.780Z,1015.07
2018-12-27T08:26:47.769Z,1015.08
2018-12-27T08:27:47.756Z,1014.98
2018-12-27T08:28:47.748Z,1015.01
2018-12-27T08:29:47.736Z,1015.03
2018-12-27T08:30:47.747Z,1015.02
2018-12-27T08:31:47.715Z,1015.03
2018-12-27T08:32:47.701Z,1014.98
2018-12-27T08:33:47.688Z,1015.00
2018-12-27T08:34:47.677Z,1014.96
2018-12-27T08:35:47.684Z,1014.95
2018-12-27T08:36:47.657Z,1014.98
2018-12-27T08:37:47.642Z,1014.96
2018-12-27T08:38:47.631Z,1014.95
2018-12-27T08:39:47.623Z,1014.97
2018-12-27T08:40:47.633Z,1014.92
2018-12-27T08:41:47.598Z,1014.93
2018-12-27T08:42:47.585Z,1014.92
2018-12-27T08:43:47.574Z,1014.87
2018-12-27T08:44:47.562Z,1014.90
2018-12-27T08:45:47.552Z,1014.93
2018-12-27T08:46:47.559Z,1014.91
2018-12-27T08:47:47.529Z,1014.90
2018-12-27T08:48:47.520Z,1014.95
2018-12-27T08:49:47.505Z,1014.95
2018-12-27T08:50:47.495Z,1014.97
2018-12-27T08:51:47.501Z,1014.94
2018-12-27T08:52:47.471Z,1014.93
2018-12-27T08:53:47.459Z,1014.95
2018-12-27T08:54:47.447Z,1014.89
2018-12-27T08:55:47.479Z,1014.87
2018-12-27T08:56:47.425Z,1014.90
2018-12-27T08:57:47.414Z,1014.87
2018-12-27T08:58:47.402Z,1014.85
2018-12-27T08:59:47.390Z,1014.83
2018-12-27T09:00:47.378Z,1014.85
2018-12-27T09:01:47.385Z,1014.89
2018-12-27T09:02:47.354Z,1014.79
2018-12-27T09:03:47.344Z,1014.84
2018-12-27T09:04:47.331Z,1014.80
2018-12-27T09:05:47.339Z,1014.80
2018-12-27T09:06:47.309Z,1014.76
2018-12-27T09:07:47.298Z,1014.77
2018-12-27T09:08:47.287Z,1014.79
2018-12-27T09:09:47.275Z,1014.73
2018-12-27T09:10:47.287Z,1014.78
2018-12-27T09:11:47.252Z,1014.79
2018-12-27T09:12:47.239Z,1014.80
2018-12-27T09:13:47.227Z,1014.73
2018-12-27T09:14:47.219Z,1014.79
2018-12-27T09:15:47.206Z,1014.76
2018-12-27T09:16:47.216Z,1014.71
2018-12-27T09:17:47.183Z,1014.67
2018-12-27T09:18:47.172Z,1014.63
2018-12-27T09:19:47.159Z,1014.56
2018-12-27T09:20:47.150Z,1014.60
2018-12-27T09:21:47.157Z,1014.58
2018-12-27T09:22:47.127Z,1014.61
2018-12-27T09:23:47.115Z,1014.62
2018-12-27T09:24:47.102Z,1014.63
2018-12-27T09:25:47.090Z,1014.64
2018-12-27T09:26:47.098Z,1014.59
2018-12-27T09:27:47.071Z,1014.55
2018-12-27T09:28:47.059Z,1014.58
2018-12-27T09:29:47.047Z,1014.55
2018-12-27T09:30:47.040Z,1014.55
2018-12-27T09:31:47.049Z,1014.53
2018-12-27T09:32:47.015Z,1014.54
2018-12-27T09:33:47.002Z,1014.52
2018-12-27T09:34:46.995Z,1014.50
2018-12-27T09:35:46.980Z,1014.47
2018-12-27T09:36:46.969Z,1014.47
2018-12-27T09:37:46.976Z,1014.51
2018-12-27T09:38:46.947Z,1014.49
2018-12-27T09:39:46.936Z,1014.49
2018-12-27T09:40:46.925Z,1014.51
2018-12-27T09:41:46.912Z,1014.54
2018-12-27T09:42:46.921Z,1014.55
2018-12-27T09:43:46.890Z,1014.50
2018-12-27T09:44:46.878Z,1014.53
2018-12-27T09:45:46.867Z,1014.57
2018-12-27T09:46:46.857Z,1014.64
2018-12-27T09:47:46.865Z,1014.63
2018-12-27T09:48:46.832Z,1014.62
2018-12-27T09:49:46.822Z,1014.59
2018-12-27T09:50:46.807Z,1014.63
2018-12-27T09:51:46.796Z,1014.60
2018-12-27T09:52:46.784Z,1014.62
2018-12-27T09:53:46.797Z,1014.69
2018-12-27T09:54:46.774Z,1014.66
2018-12-27T09:55:46.749Z,1014.65
2018-12-27T09:56:46.738Z,1014.66
2018-12-27T09:57:46.726Z,1014.61
2018-12-27T09:58:46.734Z,1014.59
2018-12-27T09:59:46.704Z,1014.50
2018-12-27T10:00:46.692Z,1014.50
2018-12-27T10:01:46.681Z,1014.55
2018-12-27T10:02:46.670Z,1014.56
2018-12-27T10:03:46.676Z,1014.53
2018-12-27T10:04:46.647Z,1014.50
2018-12-27T10:05:46.639Z,1014.50
2018-12-27T10:06:46.628Z,1014.48
2018-12-27T10:07:46.614Z,1014.42
2018-12-27T10:08:46.626Z,1014.49
2018-12-27T10:09:46.591Z,1014.50
2018-12-27T10:10:46.577Z,1014.44
2018-12-27T10:11:46.566Z,1014.48
2018-12-27T10:12:46.554Z,1014.51
2018-12-27T10:13:46.546Z,1014.49
2018-12-27T10:14:46.550Z,1014.49
2018-12-27T10:15:46.526Z,1014.49
2018-12-27T10:16:46.509Z,1014.53
2018-12-27T10:17:46.497Z,1014.48
2018-12-27T10:18:46.487Z,1014.48
2018-12-27T10:19:46.494Z,1014.46
2018-12-27T10:20:46.464Z,1014.47
2018-12-27T10:21:46.454Z,1014.46
2018-12-27T10:22:46.439Z,1014.43
2018-12-27T10:23:46.429Z,1014.41
2018-12-27T10:24:46.453Z,1014.35
2018-12-27T10:25:46.410Z,1014.33
2018-12-27T10:26:46.395Z,1014.33
2018-12-27T10:27:46.383Z,1014.29
2018-12-27T10:28:46.372Z,1014.30
2018-12-27T10:29:46.360Z,1014.26
2018-12-27T10:30:46.368Z,1014.24
2018-12-27T10:31:46.339Z,1014.21
2018-12-27T10:32:46.327Z,1014.20
2018-12-27T10:33:46.316Z,1014.24
2018-12-27T10:34:46.306Z,1014.28
2018-12-27T10:35:46.311Z,1014.24
2018-12-27T10:36:46.283Z,1014.24
2018-12-27T10:37:46.268Z,1014.20
2018-12-27T10:38:46.258Z,1014.14
2018-12-27T10:39:46.247Z,1014.12
2018-12-27T10:40:46.255Z,1014.10
2018-12-27T10:41:46.225Z,1014.13
2018-12-27T10:42:46.219Z,1014.14
2018-12-27T10:43:46.201Z,1014.18
2018-12-27T10:44:46.189Z,1014.12
2018-12-27T10:45:46.199Z,1014.09
2018-12-27T10:46:46.166Z,1014.11
2018-12-27T10:47:46.156Z,1014.13
2018-12-27T10:48:46.144Z,1014.14
2018-12-27T10:49:46.134Z,1014.10
2018-12-27T10:50:46.122Z,1014.09
2018-12-27T10:51:46.129Z,1014.03
2018-12-27T10:52:46.099Z,1014.08
2018-12-27T10:53:46.086Z,1014.03
2018-12-27T10:54:46.077Z,1014.07
2018-12-27T10:55:46.063Z,1014.03
2018-12-27T10:56:46.072Z,1014.06
2018-12-27T10:57:46.043Z,1014.02
2018-12-27T10:58:46.030Z,1014.08
2018-12-27T10:59:46.017Z,1014.04
2018-12-27T11:00:46.007Z,1014.05
2018-12-27T11:01:46.014Z,1014.01
2018-12-27T11:02:45.985Z,1014.03
2018-12-27T11:03:45.971Z,1014.00
2018-12-27T11:04:45.961Z,1013.94
2018-12-27T11:05:48.818Z,1013.95
2018-12-27T11:06:45.956Z,1013.91
2018-12-27T11:07:45.926Z,1013.90
2018-12-27T11:08:45.915Z,1013.87
2018-12-27T11:09:45.905Z,1013.88
2018-12-27T11:10:45.913Z,1013.83
2018-12-27T11:11:45.925Z,1013.81
2018-12-27T11:12:45.870Z,1013.78
2018-12-27T11:13:45.860Z,1013.79
2018-12-27T11:14:45.845Z,1013.71
2018-12-27T11:15:45.835Z,1013.66
2018-12-27T11:16:45.823Z,1013.73
2018-12-27T11:17:45.830Z,1013.67
2018-12-27T11:18:45.799Z,1013.68
2018-12-27T11:19:45.790Z,1013.65
2018-12-27T11:20:45.778Z,1013.68
2018-12-27T11:21:45.764Z,1013.69
2018-12-27T11:22:45.774Z,1013.67
2018-12-27T11:23:45.745Z,1013.72
2018-12-27T11:24:45.731Z,1013.67
2018-12-27T11:25:45.727Z,1013.70
2018-12-27T11:26:45.707Z,1013.66
2018-12-27T11:27:45.713Z,1013.61
2018-12-27T11:28:45.685Z,1013.62
2018-12-27T11:29:45.672Z,1013.57
2018-12-27T11:30:45.661Z,1013.59
2018-12-27T11:31:45.649Z,1013.59
2018-12-27T11:32:45.656Z,1013.56
2018-12-27T11:33:45.626Z,1013.60
2018-12-27T11:34:45.613Z,1013.54
2018-12-27T11:35:45.602Z,1013.51
2018-12-27T11:36:45.593Z,1013.52
2018-12-27T11:37:45.602Z,1013.49
2018-12-27T11:38:45.566Z,1013.48
2018-12-27T11:39:45.555Z,1013.46
2018-12-27T11:40:45.543Z,1013.44
2018-12-27T11:41:45.530Z,1013.41
2018-12-27T11:42:45.523Z,1013.43
2018-12-27T11:43:45.530Z,1013.46
2018-12-27T11:44:45.550Z,1013.43
2018-12-27T11:45:45.485Z,1013.42
2018-12-27T11:46:45.485Z,1013.46
2018-12-27T11:47:45.471Z,1013.47
2018-12-27T11:48:45.473Z,1013.47
2018-12-27T11:49:45.442Z,1013.43
2018-12-27T11:50:45.429Z,1013.38
2018-12-27T11:51:45.416Z,1013.38
2018-12-27T11:52:45.406Z,1013.39
2018-12-27T11:53:45.414Z,1013.38
2018-12-27T11:54:45.383Z,1013.30
2018-12-27T11:55:45.373Z,1013.36
2018-12-27T11:56:45.360Z,1013.37
2018-12-27T11:57:45.348Z,1013.30
2018-12-27T11:58:45.361Z,1013.27
2018-12-27T11:59:45.325Z,1013.33
2018-12-27T12:00:45.314Z,1013.33
2018-12-27T12:01:45.304Z,1013.24
2018-12-27T12:02:45.292Z,1013.25
2018-12-27T12:03:45.280Z,1013.21
2018-12-27T12:04:45.287Z,1013.23
2018-12-27T12:05:45.257Z,1013.21